createdAt,value
2022-09-12T00:00:08.257Z,0.00
2022-09-12T00:01:08.470Z,0.00
2022-09-12T00:02:08.644Z,0.00
2022-09-12T00:03:08.956Z,0.00
2022-09-12T00:04:09.036Z,0.00
2022-09-12T00:05:09.203Z,0.00
2022-09-12T00:06:09.401Z,0.00
2022-09-12T00:07:09.555Z,0.00
2022-09-12T00:08:09.723Z,0.00
2022-09-12T00:09:09.923Z,0.00
2022-09-12T00:10:10.098Z,0.00
2022-09-12T00:11:10.273Z,0.00
2022-09-12T00:12:10.437Z,0.00
2022-09-12T00:13:10.604Z,0.00
2022-09-12T00:14:10.784Z,0.00
2022-09-12T00:15:10.951Z,0.00
2022-09-12T00:16:11.170Z,0.00
2022-09-12T00:17:11.343Z,0.00
2022-09-12T00:18:11.515Z,0.00
2022-09-12T00:19:11.733Z,0.00
2022-09-12T00:20:11.904Z,0.00
2022-09-12T00:21:12.122Z,0.00
2022-09-12T00:22:12.291Z,0.00
2022-09-12T00:23:12.487Z,0.00
2022-09-12T00:24:12.689Z,0.00
2022-09-12T00:25:12.867Z,0.00
2022-09-12T00:26:13.046Z,0.00
2022-09-12T00:27:13.220Z,0.00
2022-09-12T00:28:13.393Z,0.00
2022-09-12T00:29:13.584Z,0.00
2022-09-12T00:30:13.762Z,0.00
2022-09-12T00:31:14.037Z,0.00
2022-09-12T00:32:14.328Z,0.00
2022-09-12T00:33:14.290Z,0.00
2022-09-12T00:34:14.494Z,0.00
2022-09-12T00:35:14.665Z,0.00
2022-09-12T00:36:14.854Z,0.00
2022-09-12T00:37:15.041Z,0.00
2022-09-12T00:38:15.222Z,0.00
2022-09-12T00:39:15.409Z,0.00
2022-09-12T00:40:15.649Z,0.00
2022-09-12T00:41:15.720Z,0.00
2022-09-12T00:42:15.902Z,0.00
2022-09-12T00:43:16.077Z,0.00
2022-09-12T00:44:16.264Z,0.00
2022-09-12T00:45:16.447Z,0.00
2022-09-12T00:46:16.641Z,0.00
2022-09-12T00:47:16.820Z,0.00
2022-09-12T00:48:17.009Z,0.00
2022-09-12T00:49:17.209Z,0.00
2022-09-12T00:50:17.384Z,0.00
2022-09-12T00:51:17.567Z,0.00
2022-09-12T00:52:17.739Z,0.00
2022-09-12T00:53:17.980Z,0.00
2022-09-12T00:54:18.145Z,0.00
2022-09-12T00:55:18.349Z,0.00
2022-09-12T00:56:18.536Z,0.00
2022-09-12T00:57:18.710Z,0.00
2022-09-12T00:58:18.898Z,0.00
2022-09-12T00:59:19.097Z,0.00
2022-09-12T01:00:19.278Z,0.00
2022-09-12T01:01:19.526Z,0.00
2022-09-12T01:02:19.653Z,0.00
2022-09-12T01:03:19.952Z,0.00
2022-09-12T01:04:20.018Z,0.00
2022-09-12T01:05:20.185Z,0.00
2022-09-12T01:06:20.634Z,0.00
2022-09-12T01:07:20.547Z,0.00
2022-09-12T01:08:20.728Z,0.00
2022-09-12T01:09:20.915Z,0.00
2022-09-12T01:10:21.105Z,0.00
2022-09-12T01:11:21.279Z,0.00
2022-09-12T01:12:21.465Z,0.00
2022-09-12T01:13:21.655Z,0.00
2022-09-12T01:14:21.879Z,0.00
2022-09-12T01:15:22.055Z,0.00
2022-09-12T01:16:22.278Z,0.00
2022-09-12T01:17:22.436Z,0.00
2022-09-12T01:18:22.635Z,0.00
2022-09-12T01:19:22.832Z,0.00
2022-09-12T01:20:23.022Z,0.00
2022-09-12T01:21:23.205Z,0.00
2022-09-12T01:22:23.380Z,0.00
2022-09-12T01:23:23.579Z,0.00
2022-09-12T01:24:23.771Z,0.00
2022-09-12T01:25:23.966Z,0.00
2022-09-12T01:26:24.191Z,0.00
2022-09-12T01:27:24.393Z,0.00
2022-09-12T01:28:24.569Z,0.00
2022-09-12T01:29:24.768Z,0.00
2022-09-12T01:30:24.960Z,0.00
2022-09-12T01:31:25.158Z,0.00
2022-09-12T01:32:25.379Z,0.00
2022-09-12T01:33:25.558Z,0.00
2022-09-12T01:34:25.753Z,0.00
2022-09-12T01:35:25.944Z,0.00
2022-09-12T01:36:26.121Z,0.00
2022-09-12T01:37:26.322Z,0.00
2022-09-12T01:38:26.520Z,0.00
2022-09-12T01:39:26.919Z,0.00
2022-09-12T01:40:26.881Z,0.00
2022-09-12T01:41:27.057Z,0.00
2022-09-12T01:42:27.230Z,0.00
2022-09-12T01:43:27.428Z,0.00
2022-09-12T01:44:27.696Z,0.00
2022-09-12T01:45:27.843Z,0.00
2022-09-12T01:46:27.903Z,0.00
2022-09-12T01:47:28.098Z,0.00
2022-09-12T01:48:28.270Z,0.00
2022-09-12T01:49:28.469Z,0.00
2022-09-12T01:50:28.654Z,0.00
2022-09-12T01:51:28.833Z,0.00
2022-09-12T01:52:29.010Z,0.00
2022-09-12T01:53:29.205Z,0.00
2022-09-12T01:54:29.544Z,0.00
2022-09-12T01:55:29.594Z,0.00
2022-09-12T01:56:29.766Z,0.00
2022-09-12T01:57:29.948Z,0.00
2022-09-12T01:58:30.121Z,0.00
2022-09-12T01:59:30.315Z,0.00
2022-09-12T02:00:30.498Z,0.00
2022-09-12T02:01:30.705Z,0.00
2022-09-12T02:02:30.857Z,0.00
2022-09-12T02:03:31.037Z,0.00
2022-09-12T02:04:34.266Z,0.00
2022-09-12T02:05:31.396Z,0.00
2022-09-12T02:06:31.567Z,0.00
2022-09-12T02:07:31.756Z,0.00
2022-09-12T02:08:31.967Z,0.00
2022-09-12T02:09:32.176Z,0.00
2022-09-12T02:10:32.916Z,0.00
2022-09-12T02:11:32.545Z,0.00
2022-09-12T02:12:32.739Z,0.00
2022-09-12T02:13:32.943Z,0.00
2022-09-12T02:14:33.157Z,0.00
2022-09-12T02:15:33.337Z,0.00
2022-09-12T02:16:33.543Z,0.00
2022-09-12T02:17:33.702Z,0.00
2022-09-12T02:18:33.891Z,0.00
2022-09-12T02:19:34.088Z,0.00
2022-09-12T02:20:49.615Z,0.00
2022-09-12T02:21:35.425Z,0.00
2022-09-12T02:22:34.595Z,0.00
2022-09-12T02:23:34.776Z,0.00
2022-09-12T02:24:34.982Z,0.00
2022-09-12T02:25:35.169Z,0.00
2022-09-12T02:26:35.379Z,0.00
2022-09-12T02:27:35.559Z,0.00
2022-09-12T02:28:35.820Z,0.00
2022-09-12T02:29:35.923Z,0.00
2022-09-12T02:30:36.155Z,0.00
2022-09-12T02:31:36.318Z,0.00
2022-09-12T02:32:36.499Z,0.00
2022-09-12T02:33:36.688Z,0.00
2022-09-12T02:34:36.891Z,0.00
2022-09-12T02:35:37.081Z,0.00
2022-09-12T02:36:37.281Z,0.00
2022-09-12T02:37:37.471Z,0.00
2022-09-12T02:38:37.659Z,0.00
2022-09-12T02:39:40.229Z,0.00
2022-09-12T02:40:39.088Z,0.00
2022-09-12T02:41:38.274Z,0.00
2022-09-12T02:42:38.456Z,0.00
2022-09-12T02:43:38.651Z,0.00
2022-09-12T02:44:38.861Z,0.00
2022-09-12T02:45:39.085Z,0.00
2022-09-12T02:46:39.257Z,0.00
2022-09-12T02:47:39.447Z,0.00
2022-09-12T02:48:41.436Z,0.00
2022-09-12T02:49:39.796Z,0.00
2022-09-12T02:50:39.981Z,0.00
2022-09-12T02:51:40.169Z,0.00
2022-09-12T02:52:40.349Z,0.00
2022-09-12T02:53:40.529Z,0.00
2022-09-12T02:54:40.725Z,0.00
2022-09-12T02:55:40.914Z,0.00
2022-09-12T02:56:41.092Z,0.00
2022-09-12T02:57:41.276Z,0.00
2022-09-12T02:58:41.493Z,0.00
2022-09-12T02:59:41.661Z,0.00
2022-09-12T03:00:41.848Z,0.00
2022-09-12T03:01:42.030Z,0.00
2022-09-12T03:02:42.215Z,0.00
2022-09-12T03:03:43.556Z,0.00
2022-09-12T03:04:42.595Z,0.00
2022-09-12T03:05:42.791Z,0.00
2022-09-12T03:06:42.988Z,0.00
2022-09-12T03:07:43.186Z,0.00
2022-09-12T03:08:43.411Z,0.00
2022-09-12T03:09:43.582Z,0.00
2022-09-12T03:10:43.771Z,0.00
2022-09-12T03:11:43.956Z,0.00
2022-09-12T03:12:44.147Z,0.00
2022-09-12T03:13:44.327Z,0.00
2022-09-12T03:14:44.525Z,0.00
2022-09-12T03:15:44.700Z,0.00
2022-09-12T03:16:44.923Z,0.00
2022-09-12T03:17:45.085Z,0.00
2022-09-12T03:18:45.381Z,0.00
2022-09-12T03:19:45.524Z,0.00
2022-09-12T03:20:45.713Z,0.00
2022-09-12T03:21:45.895Z,0.00
2022-09-12T03:22:49.294Z,0.00
2022-09-12T03:23:47.221Z,0.00
2022-09-12T03:24:46.408Z,0.00
2022-09-12T03:25:46.603Z,0.00
2022-09-12T03:26:46.778Z,0.00
2022-09-12T03:27:46.965Z,0.00
2022-09-12T03:28:47.308Z,0.00
2022-09-12T03:29:47.301Z,0.00
2022-09-12T03:30:47.510Z,0.00
2022-09-12T03:31:47.714Z,0.00
2022-09-12T03:32:47.900Z,0.00
2022-09-12T03:33:48.093Z,0.00
2022-09-12T03:34:48.290Z,0.00
2022-09-12T03:35:48.474Z,0.00
2022-09-12T03:36:48.663Z,0.00
2022-09-12T03:37:48.846Z,0.00
2022-09-12T03:38:49.031Z,0.00
2022-09-12T03:39:49.299Z,0.00
2022-09-12T03:40:54.075Z,0.00
2022-09-12T03:41:50.596Z,0.00
2022-09-12T03:42:49.787Z,0.00
2022-09-12T03:43:49.979Z,0.00
2022-09-12T03:44:50.179Z,0.00
2022-09-12T03:45:50.428Z,0.00
2022-09-12T03:46:50.497Z,0.00
2022-09-12T03:47:50.675Z,0.00
2022-09-12T03:48:50.880Z,0.00
2022-09-12T03:49:51.090Z,0.00
2022-09-12T03:50:51.263Z,0.00
2022-09-12T03:51:51.450Z,0.00
2022-09-12T03:52:51.628Z,0.00
2022-09-12T03:53:51.814Z,0.00
2022-09-12T03:54:52.008Z,0.00
2022-09-12T03:55:52.188Z,0.00
2022-09-12T03:56:52.389Z,0.00
2022-09-12T03:57:52.584Z,0.00
2022-09-12T03:58:52.766Z,0.00
2022-09-12T03:59:52.970Z,0.00
2022-09-12T04:00:53.221Z,0.00
2022-09-12T04:01:53.461Z,0.00
2022-09-12T04:02:53.684Z,0.00
2022-09-12T04:03:53.937Z,0.00
2022-09-12T04:04:54.166Z,0.00
2022-09-12T04:05:54.407Z,0.00
2022-09-12T04:06:54.632Z,4.00
2022-09-12T04:07:54.851Z,0.00
2022-09-12T04:08:55.095Z,4.00
2022-09-12T04:09:55.346Z,4.00
2022-09-12T04:10:55.458Z,4.00
2022-09-12T04:11:55.708Z,4.00
2022-09-12T04:12:55.943Z,8.00
2022-09-12T04:13:56.176Z,8.00
2022-09-12T04:14:56.455Z,8.00
2022-09-12T04:15:56.666Z,8.00
2022-09-12T04:16:56.860Z,12.00
2022-09-12T04:17:57.056Z,12.00
2022-09-12T04:18:57.249Z,16.00
2022-09-12T04:19:57.485Z,20.00
2022-09-12T04:20:57.670Z,20.00
2022-09-12T04:21:57.873Z,24.00
2022-09-12T04:22:58.067Z,28.00
2022-09-12T04:23:58.262Z,32.00
2022-09-12T04:24:58.458Z,36.00
2022-09-12T04:25:58.637Z,44.00
2022-09-12T04:26:58.832Z,48.00
2022-09-12T04:27:59.014Z,56.00
2022-09-12T04:28:59.214Z,64.00
2022-09-12T04:29:59.422Z,72.00
2022-09-12T04:30:59.658Z,84.00
2022-09-12T04:31:59.833Z,92.00
2022-09-12T04:33:00.034Z,104.00
2022-09-12T04:34:00.223Z,112.00
2022-09-12T04:35:00.426Z,124.00
2022-09-12T04:36:00.634Z,136.00
2022-09-12T04:37:00.822Z,152.00
2022-09-12T04:38:01.021Z,164.00
2022-09-12T04:39:01.222Z,176.00
2022-09-12T04:40:01.544Z,192.00
2022-09-12T04:41:01.659Z,208.00
2022-09-12T04:42:01.851Z,224.00
2022-09-12T04:43:02.035Z,240.00
2022-09-12T04:44:02.236Z,260.00
2022-09-12T04:45:02.477Z,276.00
2022-09-12T04:46:02.734Z,296.00
2022-09-12T04:47:02.873Z,312.00
2022-09-12T04:48:03.068Z,336.00
2022-09-12T04:49:03.260Z,352.00
2022-09-12T04:50:03.471Z,376.00
2022-09-12T04:51:03.659Z,396.00
2022-09-12T04:52:03.854Z,416.00
2022-09-12T04:53:04.044Z,440.00
2022-09-12T04:54:04.235Z,460.00
2022-09-12T04:55:04.462Z,484.00
2022-09-12T04:56:04.680Z,504.00
2022-09-12T04:57:04.869Z,528.00
2022-09-12T04:58:05.050Z,552.00
2022-09-12T04:59:05.243Z,572.00
2022-09-12T05:00:07.349Z,596.00
2022-09-12T05:01:05.650Z,616.00
2022-09-12T05:02:05.860Z,636.00
2022-09-12T05:03:05.928Z,656.00
2022-09-12T05:04:06.122Z,680.00
2022-09-12T05:05:06.322Z,700.00
2022-09-12T05:06:06.505Z,720.00
2022-09-12T05:07:06.698Z,744.00
2022-09-12T05:08:06.875Z,768.00
2022-09-12T05:09:07.059Z,788.00
2022-09-12T05:10:07.264Z,808.00
2022-09-12T05:11:07.491Z,828.00
2022-09-12T05:12:07.677Z,848.00
2022-09-12T05:13:07.870Z,868.00
2022-09-12T05:14:08.067Z,892.00
2022-09-12T05:15:08.265Z,912.00
2022-09-12T05:16:08.497Z,932.00
2022-09-12T05:17:08.675Z,952.00
2022-09-12T05:18:08.876Z,976.00
2022-09-12T05:19:09.096Z,992.00
2022-09-12T05:20:09.321Z,1016.00
2022-09-12T05:21:09.515Z,1052.00
2022-09-12T05:22:09.695Z,1092.00
2022-09-12T05:23:09.881Z,1132.00
2022-09-12T05:24:10.067Z,1164.00
2022-09-12T05:25:10.293Z,1188.00
2022-09-12T05:26:10.483Z,1216.00
2022-09-12T05:27:10.673Z,1240.00
2022-09-12T05:28:10.865Z,1264.00
2022-09-12T05:29:11.065Z,1296.00
2022-09-12T05:30:11.337Z,1324.00
2022-09-12T05:31:19.454Z,1352.00
2022-09-12T05:32:11.606Z,1384.00
2022-09-12T05:33:11.815Z,1408.00
2022-09-12T05:34:13.953Z,1440.00
2022-09-12T05:35:12.266Z,1472.00
2022-09-12T05:36:12.478Z,1500.00
2022-09-12T05:37:12.664Z,1524.00
2022-09-12T05:38:12.848Z,1556.00
2022-09-12T05:39:13.068Z,1584.00
2022-09-12T05:40:13.503Z,1616.00
2022-09-12T05:41:17.078Z,1644.00
2022-09-12T05:42:13.638Z,1668.00
2022-09-12T05:43:13.812Z,1696.00
2022-09-12T05:44:14.030Z,1728.00
2022-09-12T05:45:14.270Z,1752.00
2022-09-12T05:46:14.490Z,1784.00
2022-09-12T05:47:14.642Z,1808.00
2022-09-12T05:48:14.826Z,1832.00
2022-09-12T05:49:15.023Z,1864.00
2022-09-12T05:50:15.235Z,1888.00
2022-09-12T05:51:15.454Z,1916.00
2022-09-12T05:52:15.646Z,1944.00
2022-09-12T05:53:15.845Z,1972.00
2022-09-12T05:54:16.029Z,1992.00
2022-09-12T05:55:16.278Z,2020.00
2022-09-12T05:56:16.476Z,2044.00
2022-09-12T05:57:16.683Z,2064.00
2022-09-12T05:58:16.878Z,2088.00
2022-09-12T05:59:17.052Z,2112.00
2022-09-12T06:00:17.263Z,2140.00
2022-09-12T06:01:17.481Z,2160.00
2022-09-12T06:02:17.702Z,2192.00
2022-09-12T06:03:17.926Z,2224.00
2022-09-12T06:04:18.073Z,2244.00
2022-09-12T06:05:18.241Z,2268.00
2022-09-12T06:06:18.472Z,2296.00
2022-09-12T06:07:18.603Z,2332.00
2022-09-12T06:08:18.771Z,2364.00
2022-09-12T06:09:18.982Z,2396.00
2022-09-12T06:10:19.197Z,2428.00
2022-09-12T06:11:19.368Z,2468.00
2022-09-12T06:12:19.559Z,2500.00
2022-09-12T06:13:19.742Z,2536.00
2022-09-12T06:14:19.918Z,2572.00
2022-09-12T06:15:20.147Z,2600.00
2022-09-12T06:16:20.354Z,2656.00
2022-09-12T06:17:20.423Z,2816.00
2022-09-12T06:18:20.613Z,2832.00
2022-09-12T06:19:20.806Z,2760.00
2022-09-12T06:20:20.958Z,2784.00
2022-09-12T06:21:21.122Z,2828.00
2022-09-12T06:22:21.311Z,2864.00
2022-09-12T06:23:21.497Z,2904.00
2022-09-12T06:24:21.670Z,2940.00
2022-09-12T06:25:21.841Z,2980.00
2022-09-12T06:26:22.006Z,3012.00
2022-09-12T06:27:22.201Z,3040.00
2022-09-12T06:28:22.348Z,3068.00
2022-09-12T06:29:22.527Z,3104.00
2022-09-12T06:30:25.472Z,3148.00
2022-09-12T06:31:22.866Z,3188.00
2022-09-12T06:32:23.041Z,3228.00
2022-09-12T06:33:23.208Z,3280.00
2022-09-12T06:34:23.349Z,3312.00
2022-09-12T06:35:23.555Z,3348.00
2022-09-12T06:36:23.700Z,3388.00
2022-09-12T06:37:23.874Z,3412.00
2022-09-12T06:38:24.023Z,3440.00
2022-09-12T06:39:24.179Z,3496.00
2022-09-12T06:40:24.427Z,3560.00
2022-09-12T06:41:24.448Z,3592.00
2022-09-12T06:42:24.864Z,3660.00
2022-09-12T06:43:24.708Z,3720.00
2022-09-12T06:44:24.853Z,3724.00
2022-09-12T06:45:25.030Z,3740.00
2022-09-12T06:46:25.174Z,3764.00
2022-09-12T06:47:25.339Z,3800.00
2022-09-12T06:48:25.454Z,3820.00
2022-09-12T06:49:25.605Z,3864.00
2022-09-12T06:50:25.778Z,3904.00
2022-09-12T06:51:25.910Z,3948.00
2022-09-12T06:52:26.062Z,3984.00
2022-09-12T06:53:26.211Z,4008.00
2022-09-12T06:54:26.383Z,4032.00
2022-09-12T06:55:27.851Z,4044.00
2022-09-12T06:56:26.707Z,4076.00
2022-09-12T06:57:26.881Z,4112.00
2022-09-12T06:58:27.019Z,4152.00
2022-09-12T06:59:27.160Z,4192.00
2022-09-12T07:00:27.314Z,4224.00
2022-09-12T07:01:27.521Z,4256.00
2022-09-12T07:02:27.600Z,4296.00
2022-09-12T07:03:27.716Z,4340.00
2022-09-12T07:04:27.839Z,4364.00
2022-09-12T07:05:28.019Z,4448.00
2022-09-12T07:06:28.198Z,4520.00
2022-09-12T07:07:28.326Z,4568.00
2022-09-12T07:08:28.458Z,4624.00
2022-09-12T07:09:28.593Z,4728.00
2022-09-12T07:10:28.773Z,4788.00
2022-09-12T07:11:28.911Z,4944.00
2022-09-12T07:12:29.071Z,4980.00
2022-09-12T07:13:29.194Z,5128.00
2022-09-12T07:14:29.324Z,5232.00
2022-09-12T07:15:29.493Z,5312.00
2022-09-12T07:16:30.424Z,5380.00
2022-09-12T07:17:29.695Z,5472.00
2022-09-12T07:18:29.842Z,5476.00
2022-09-12T07:19:29.983Z,5540.00
2022-09-12T07:20:30.132Z,5520.00
2022-09-12T07:21:30.297Z,5568.00
2022-09-12T07:22:30.407Z,5656.00
2022-09-12T07:23:30.543Z,5756.00
2022-09-12T07:24:30.672Z,5864.00
2022-09-12T07:25:30.800Z,6060.00
2022-09-12T07:26:30.925Z,6328.00
2022-09-12T07:27:31.026Z,6520.00
2022-09-12T07:28:31.140Z,6664.00
2022-09-12T07:29:38.336Z,6764.00
2022-09-12T07:30:32.337Z,6880.00
2022-09-12T07:31:31.433Z,7072.00
2022-09-12T07:32:31.554Z,7192.00
2022-09-12T07:33:31.673Z,7164.00
2022-09-12T07:34:31.772Z,7232.00
2022-09-12T07:35:31.902Z,7364.00
2022-09-12T07:36:32.028Z,7300.00
2022-09-12T07:37:32.142Z,7296.00
2022-09-12T07:38:32.270Z,7428.00
2022-09-12T07:39:32.408Z,7552.00
2022-09-12T07:40:32.550Z,7708.00
2022-09-12T07:41:32.664Z,7896.00
2022-09-12T07:42:32.804Z,8220.00
2022-09-12T07:43:33.911Z,8536.00
2022-09-12T07:44:33.015Z,8808.00
2022-09-12T07:45:33.108Z,9060.00
2022-09-12T07:46:33.238Z,9512.00
2022-09-12T07:47:33.344Z,10028.00
2022-09-12T07:48:33.373Z,10380.00
2022-09-12T07:49:33.462Z,10900.00
2022-09-12T07:50:33.559Z,9800.00
2022-09-12T07:51:33.674Z,7280.00
2022-09-12T07:52:33.753Z,6920.00
2022-09-12T07:53:33.856Z,6612.00
2022-09-12T07:54:33.924Z,6568.00
2022-09-12T07:55:34.004Z,6572.00
2022-09-12T07:56:38.710Z,6356.00
2022-09-12T07:57:35.157Z,6324.00
2022-09-12T07:58:34.239Z,6400.00
2022-09-12T07:59:52.178Z,6352.00
2022-09-12T08:00:35.352Z,6496.00
2022-09-12T08:01:34.640Z,6532.00
2022-09-12T08:02:34.504Z,6552.00
2022-09-12T08:03:34.651Z,5340.00
2022-09-12T08:04:34.639Z,6976.00
2022-09-12T08:05:34.717Z,6740.00
2022-09-12T08:06:34.808Z,6656.00
2022-09-12T08:07:34.917Z,6628.00
2022-09-12T08:08:35.008Z,6784.00
2022-09-12T08:09:35.063Z,6896.00
2022-09-12T08:10:35.135Z,6956.00
2022-09-12T08:11:35.238Z,6864.00
2022-09-12T08:12:35.344Z,7356.00
2022-09-12T08:13:35.470Z,6332.00
2022-09-12T08:14:35.505Z,7924.00
2022-09-12T08:15:35.522Z,4444.00
2022-09-12T08:16:35.495Z,7608.00
2022-09-12T08:17:35.567Z,7696.00
2022-09-12T08:18:35.642Z,7588.00
2022-09-12T08:19:35.712Z,7776.00
2022-09-12T08:20:35.787Z,8192.00
2022-09-12T08:21:35.874Z,8692.00
2022-09-12T08:22:35.933Z,8716.00
2022-09-12T08:23:36.101Z,8496.00
2022-09-12T08:24:36.052Z,8240.00
2022-09-12T08:25:36.130Z,8072.00
2022-09-12T08:26:36.212Z,8524.00
2022-09-12T08:27:36.288Z,8744.00
2022-09-12T08:28:36.360Z,9156.00
2022-09-12T08:29:36.447Z,9468.00
2022-09-12T08:30:36.561Z,10312.00
2022-09-12T08:31:36.686Z,10692.00
2022-09-12T08:32:36.596Z,21568.00
2022-09-12T08:33:36.659Z,33152.00
2022-09-12T08:34:36.718Z,38880.00
2022-09-12T08:35:36.771Z,47520.00
2022-09-12T08:36:36.845Z,51104.00
2022-09-12T08:37:36.891Z,54208.00
2022-09-12T08:38:37.013Z,53984.00
2022-09-12T08:39:36.920Z,54912.00
2022-09-12T08:40:36.972Z,51616.00
2022-09-12T08:41:37.040Z,56512.00
2022-09-12T08:42:37.086Z,57344.00
2022-09-12T08:43:37.171Z,59072.00
2022-09-12T08:44:37.111Z,57856.00
2022-09-12T08:45:37.206Z,57792.00
2022-09-12T08:46:37.262Z,58784.00
2022-09-12T08:47:37.292Z,59328.00
2022-09-12T08:48:37.315Z,59744.00
2022-09-12T08:49:37.852Z,60800.00
2022-09-12T08:50:37.419Z,62080.00
2022-09-12T08:51:37.465Z,60736.00
2022-09-12T08:52:37.516Z,62688.00
2022-09-12T08:53:37.556Z,55808.00
2022-09-12T08:54:37.619Z,62432.00
2022-09-12T08:55:37.643Z,60736.00
2022-09-12T08:56:37.706Z,63520.00
2022-09-12T08:57:37.731Z,63008.00
2022-09-12T08:58:37.785Z,64288.00
2022-09-12T08:59:37.800Z,63232.00
2022-09-12T09:00:40.493Z,62368.00
2022-09-12T09:01:37.930Z,62304.00
2022-09-12T09:02:37.909Z,107968.00
2022-09-12T09:03:37.943Z,62240.00
2022-09-12T09:04:37.948Z,60000.00
2022-09-12T09:05:37.987Z,60064.00
2022-09-12T09:06:38.022Z,61536.00
2022-09-12T09:07:38.043Z,62048.00
2022-09-12T09:08:38.099Z,61792.00
2022-09-12T09:09:38.101Z,63328.00
2022-09-12T09:10:38.123Z,63264.00
2022-09-12T09:11:38.156Z,63808.00
2022-09-12T09:12:38.180Z,63200.00
2022-09-12T09:13:38.194Z,66368.00
2022-09-12T09:14:38.236Z,65216.00
2022-09-12T09:15:38.297Z,64608.00
2022-09-12T09:16:38.208Z,63904.00
2022-09-12T09:17:38.224Z,65472.00
2022-09-12T09:18:38.303Z,66784.00
2022-09-12T09:19:38.184Z,38976.00
2022-09-12T09:20:38.207Z,59136.00
2022-09-12T09:21:38.221Z,69216.00
2022-09-12T09:22:38.224Z,68640.00
2022-09-12T09:23:38.222Z,67968.00
2022-09-12T09:24:38.228Z,55744.00
2022-09-12T09:25:38.250Z,9648.00
2022-09-12T09:26:38.327Z,9056.00
2022-09-12T09:27:40.862Z,8784.00
2022-09-12T09:28:38.253Z,9448.00
2022-09-12T09:29:38.273Z,63584.00
2022-09-12T09:30:38.345Z,68320.00
2022-09-12T09:31:38.265Z,67552.00
2022-09-12T09:32:38.315Z,61536.00
2022-09-12T09:33:38.340Z,59232.00
2022-09-12T09:34:38.378Z,12508.00
2022-09-12T09:35:38.385Z,57408.00
2022-09-12T09:36:38.416Z,67552.00
2022-09-12T09:37:38.452Z,77472.00
2022-09-12T09:38:38.504Z,72704.00
2022-09-12T09:39:38.583Z,70112.00
2022-09-12T09:40:38.516Z,56160.00
2022-09-12T09:41:38.533Z,58720.00
2022-09-12T09:42:38.567Z,14776.00
2022-09-12T09:43:38.597Z,10840.00
2022-09-12T09:44:38.606Z,10060.00
2022-09-12T09:45:38.640Z,9632.00
2022-09-12T09:46:38.689Z,9916.00
2022-09-12T09:47:38.654Z,27680.00
2022-09-12T09:48:38.701Z,32448.00
2022-09-12T09:49:38.780Z,42080.00
2022-09-12T09:50:38.716Z,54304.00
2022-09-12T09:51:38.762Z,72832.00
2022-09-12T09:52:38.829Z,74048.00
2022-09-12T09:53:38.878Z,70656.00
2022-09-12T09:54:38.918Z,66400.00
2022-09-12T09:55:38.945Z,73120.00
2022-09-12T09:56:38.991Z,67264.00
2022-09-12T09:57:39.047Z,41376.00
2022-09-12T09:58:38.951Z,66784.00
2022-09-12T09:59:38.983Z,65504.00
2022-09-12T10:00:39.020Z,68256.00
2022-09-12T10:01:39.106Z,69696.00
2022-09-12T10:02:39.106Z,71520.00
2022-09-12T10:03:39.065Z,69536.00
2022-09-12T10:04:41.379Z,70112.00
2022-09-12T10:05:39.025Z,65408.00
2022-09-12T10:06:39.041Z,63264.00
2022-09-12T10:07:39.050Z,62144.00
2022-09-12T10:08:39.070Z,62976.00
2022-09-12T10:09:39.064Z,64576.00
2022-09-12T10:10:39.067Z,67648.00
2022-09-12T10:11:42.479Z,66304.00
2022-09-12T10:12:40.028Z,71680.00
2022-09-12T10:13:39.005Z,69920.00
2022-09-12T10:14:39.083Z,68064.00
2022-09-12T10:15:38.955Z,71136.00
2022-09-12T10:16:38.944Z,71808.00
2022-09-12T10:17:38.941Z,68800.00
2022-09-12T10:18:39.009Z,74720.00
2022-09-12T10:19:38.911Z,71328.00
2022-09-12T10:20:38.900Z,72256.00
2022-09-12T10:21:41.192Z,59648.00
2022-09-12T10:22:38.795Z,54656.00
2022-09-12T10:23:38.781Z,44928.00
2022-09-12T10:24:38.751Z,62240.00
2022-09-12T10:25:38.726Z,63712.00
2022-09-12T10:26:38.775Z,68032.00
2022-09-12T10:27:38.612Z,64992.00
2022-09-12T10:28:38.571Z,66912.00
2022-09-12T10:29:38.568Z,65120.00
2022-09-12T10:30:38.563Z,68512.00
2022-09-12T10:31:38.533Z,75520.00
2022-09-12T10:32:38.565Z,41728.00
2022-09-12T10:33:38.427Z,29600.00
2022-09-12T10:34:38.444Z,15936.00
2022-09-12T10:35:38.473Z,14000.00
2022-09-12T10:36:38.461Z,16736.00
2022-09-12T10:37:38.459Z,58336.00
2022-09-12T10:38:38.473Z,51712.00
2022-09-12T10:39:38.643Z,71456.00
2022-09-12T10:40:38.482Z,74784.00
2022-09-12T10:41:38.488Z,74976.00
2022-09-12T10:42:38.514Z,76736.00
2022-09-12T10:43:38.516Z,70112.00
2022-09-12T10:44:38.534Z,49088.00
2022-09-12T10:45:38.606Z,10572.00
2022-09-12T10:46:38.513Z,9512.00
2022-09-12T10:47:38.517Z,8944.00
2022-09-12T10:48:38.534Z,8700.00
2022-09-12T10:49:38.571Z,8720.00
2022-09-12T10:50:38.607Z,8928.00
2022-09-12T10:51:38.622Z,8972.00
2022-09-12T10:52:38.640Z,8980.00
2022-09-12T10:53:38.686Z,9536.00
2022-09-12T10:54:38.741Z,10020.00
2022-09-12T10:55:38.781Z,10624.00
2022-09-12T10:56:38.839Z,14884.00
2022-09-12T10:57:38.895Z,64000.00
2022-09-12T10:58:38.947Z,65824.00
2022-09-12T10:59:39.006Z,60704.00
2022-09-12T11:00:39.050Z,60864.00
2022-09-12T11:01:39.151Z,61088.00
2022-09-12T11:02:39.154Z,58432.00
2022-09-12T11:03:39.042Z,55200.00
2022-09-12T11:04:39.083Z,62240.00
2022-09-12T11:05:39.144Z,51744.00
2022-09-12T11:06:39.168Z,53088.00
2022-09-12T11:07:39.195Z,56768.00
2022-09-12T11:08:39.214Z,44864.00
2022-09-12T11:09:39.248Z,40864.00
2022-09-12T11:10:43.774Z,47616.00
2022-09-12T11:11:40.250Z,53696.00
2022-09-12T11:12:39.269Z,57824.00
2022-09-12T11:13:39.297Z,60832.00
2022-09-12T11:14:39.369Z,57216.00
2022-09-12T11:15:39.333Z,56768.00
2022-09-12T11:16:42.698Z,54432.00
2022-09-12T11:17:39.926Z,53120.00
2022-09-12T11:18:39.256Z,57856.00
2022-09-12T11:19:39.313Z,59104.00
2022-09-12T11:20:39.217Z,61760.00
2022-09-12T11:21:39.231Z,60768.00
2022-09-12T11:22:39.261Z,65632.00
2022-09-12T11:23:39.291Z,66528.00
2022-09-12T11:24:39.329Z,63008.00
2022-09-12T11:25:39.291Z,63712.00
2022-09-12T11:26:39.261Z,62720.00
2022-09-12T11:27:39.309Z,65216.00
2022-09-12T11:28:39.203Z,65280.00
2022-09-12T11:29:39.191Z,66560.00
2022-09-12T11:30:46.286Z,65440.00
2022-09-12T11:31:40.823Z,64704.00
2022-09-12T11:32:39.142Z,64800.00
2022-09-12T11:33:42.837Z,61856.00
2022-09-12T11:34:39.151Z,61472.00
2022-09-12T11:35:39.133Z,64320.00
2022-09-12T11:36:39.120Z,62528.00
2022-09-12T11:37:39.122Z,63264.00
2022-09-12T11:38:39.126Z,57600.00
2022-09-12T11:39:39.196Z,58496.00
2022-09-12T11:40:39.026Z,58336.00
2022-09-12T11:41:39.035Z,58368.00
2022-09-12T11:42:39.005Z,58592.00
2022-09-12T11:43:38.981Z,54176.00
2022-09-12T11:44:40.313Z,59680.00
2022-09-12T11:45:39.014Z,54240.00
2022-09-12T11:46:38.871Z,49280.00
2022-09-12T11:47:38.856Z,47648.00
2022-09-12T11:48:38.835Z,53568.00
2022-09-12T11:49:38.805Z,57984.00
2022-09-12T11:50:38.786Z,59104.00
2022-09-12T11:51:38.783Z,56224.00
2022-09-12T11:52:38.787Z,52608.00
2022-09-12T11:53:38.768Z,53376.00
2022-09-12T11:54:38.756Z,55712.00
2022-09-12T11:55:38.730Z,58720.00
2022-09-12T11:56:38.700Z,61344.00
2022-09-12T11:57:38.682Z,61792.00
2022-09-12T11:58:38.656Z,60736.00
2022-09-12T11:59:38.649Z,59840.00
2022-09-12T12:00:38.856Z,54208.00
2022-09-12T12:01:42.866Z,54400.00
2022-09-12T12:02:39.561Z,47488.00
2022-09-12T12:03:38.536Z,45696.00
2022-09-12T12:04:38.367Z,46336.00
2022-09-12T12:05:38.368Z,52192.00
2022-09-12T12:06:38.339Z,52352.00
2022-09-12T12:07:41.171Z,46912.00
2022-09-12T12:08:39.276Z,47008.00
2022-09-12T12:09:38.289Z,45632.00
2022-09-12T12:10:38.267Z,50048.00
2022-09-12T12:11:38.268Z,49632.00
2022-09-12T12:12:38.291Z,49024.00
2022-09-12T12:13:38.148Z,50400.00
2022-09-12T12:14:38.129Z,52032.00
2022-09-12T12:15:38.129Z,52608.00
2022-09-12T12:16:38.077Z,54784.00
2022-09-12T12:17:38.067Z,57536.00
2022-09-12T12:18:38.040Z,56928.00
2022-09-12T12:19:38.036Z,53568.00
2022-09-12T12:20:38.014Z,54400.00
2022-09-12T12:21:37.996Z,53056.00
2022-09-12T12:22:38.003Z,57440.00
2022-09-12T12:23:38.010Z,57760.00
2022-09-12T12:24:37.995Z,56512.00
2022-09-12T12:25:37.981Z,51168.00